createdAt,value
2023-01-12T00:02:26.802Z,18.95
2023-01-12T00:04:55.342Z,18.90
2023-01-12T00:07:24.496Z,19.40
2023-01-12T00:09:52.666Z,20.05
2023-01-12T00:12:21.330Z,17.30
2023-01-12T00:14:50.328Z,17.90
2023-01-12T00:17:20.368Z,16.98
2023-01-12T00:19:48.748Z,15.40
2023-01-12T00:22:17.552Z,22.13
2023-01-12T00:24:48.868Z,16.83
2023-01-12T00:27:20.291Z,18.67
2023-01-12T00:29:50.301Z,17.70
2023-01-12T00:32:20.669Z,22.35
2023-01-12T00:34:49.298Z,19.95
2023-01-12T00:37:20.081Z,15.85
2023-01-12T00:40:01.317Z,17.52
2023-01-12T00:42:49.115Z,16.65
2023-01-12T00:45:23.689Z,18.40
2023-01-12T00:47:53.160Z,20.48
2023-01-12T00:50:21.583Z,17.38
2023-01-12T00:52:49.700Z,17.30
2023-01-12T00:55:17.990Z,17.10
2023-01-12T00:57:46.064Z,18.63
2023-01-12T01:00:14.801Z,17.30
2023-01-12T01:02:43.169Z,19.05
2023-01-12T01:05:11.629Z,17.23
2023-01-12T01:07:40.308Z,17.88
2023-01-12T01:10:08.903Z,20.17
2023-01-12T01:12:37.075Z,21.27
2023-01-12T01:15:06.058Z,19.83
2023-01-12T01:17:34.534Z,20.80
2023-01-12T01:20:02.726Z,18.67
2023-01-12T01:22:30.993Z,20.95
2023-01-12T01:24:59.300Z,23.35
2023-01-12T01:27:27.831Z,20.95
2023-01-12T01:29:56.023Z,21.60
2023-01-12T01:32:24.088Z,19.52
2023-01-12T01:34:52.192Z,22.45
2023-01-12T01:37:22.668Z,24.63
2023-01-12T01:39:51.298Z,20.63
2023-01-12T01:42:28.698Z,25.65
2023-01-12T01:45:01.755Z,20.27
2023-01-12T01:47:43.052Z,23.55
2023-01-12T01:50:36.657Z,25.05
2023-01-12T01:53:12.998Z,22.83
2023-01-12T01:55:50.907Z,25.20
2023-01-12T01:58:29.982Z,20.02
2023-01-12T02:00:59.458Z,23.10
2023-01-12T02:03:32.096Z,25.98
2023-01-12T02:06:01.134Z,26.80
2023-01-12T02:08:38.927Z,26.38
2023-01-12T02:11:28.452Z,22.17
2023-01-12T02:14:15.318Z,25.20
2023-01-12T02:17:10.534Z,28.25
2023-01-12T02:20:22.659Z,24.15
2023-01-12T02:23:24.264Z,24.00
2023-01-12T02:26:04.642Z,20.65
2023-01-12T02:29:05.404Z,28.33
2023-01-12T02:31:52.596Z,20.67
2023-01-12T02:34:39.044Z,21.40
2023-01-12T02:37:33.626Z,20.80
2023-01-12T02:40:22.541Z,20.15
2023-01-12T02:43:08.427Z,24.35
2023-01-12T02:45:47.121Z,21.55
2023-01-12T02:48:39.512Z,21.17
2023-01-12T02:51:16.674Z,20.80
2023-01-12T02:54:02.268Z,22.98
2023-01-12T02:56:36.529Z,20.38
2023-01-12T02:59:12.618Z,23.90
2023-01-12T03:01:44.760Z,22.98
2023-01-12T03:04:16.244Z,21.85
2023-01-12T03:07:05.305Z,25.98
2023-01-12T03:09:48.671Z,23.77
2023-01-12T03:12:26.347Z,22.60
2023-01-12T03:14:57.146Z,21.92
2023-01-12T03:17:51.124Z,22.75
2023-01-12T03:20:27.032Z,20.17
2023-01-12T03:23:02.606Z,20.08
2023-01-12T03:25:34.784Z,18.88
2023-01-12T03:28:07.676Z,20.05
2023-01-12T03:30:40.067Z,21.02
2023-01-12T03:33:09.645Z,18.95
2023-01-12T03:35:54.978Z,23.25
2023-01-12T03:38:43.843Z,21.35
2023-01-12T03:41:22.818Z,21.02
2023-01-12T03:43:53.499Z,25.13
2023-01-12T03:46:47.767Z,21.85
2023-01-12T03:49:58.572Z,21.17
2023-01-12T03:52:29.164Z,18.63
2023-01-12T03:55:00.887Z,17.20
2023-01-12T03:57:30.892Z,25.42
2023-01-12T04:00:01.615Z,27.38
2023-01-12T04:02:30.329Z,23.25
2023-01-12T04:04:59.388Z,24.88
2023-01-12T04:07:27.767Z,24.60
2023-01-12T04:09:57.928Z,26.60
2023-01-12T04:12:26.646Z,21.75
2023-01-12T04:14:55.528Z,24.13
2023-01-12T04:17:25.653Z,23.73
2023-01-12T04:19:54.920Z,22.13
2023-01-12T04:22:42.419Z,22.70
2023-01-12T04:25:13.721Z,23.15
2023-01-12T04:27:47.381Z,21.05
2023-01-12T04:30:17.791Z,21.88
2023-01-12T04:32:47.497Z,22.52
2023-01-12T04:35:17.458Z,21.77
2023-01-12T04:37:46.431Z,20.25
2023-01-12T04:40:16.725Z,21.42
2023-01-12T04:43:02.351Z,27.20
2023-01-12T04:45:35.574Z,24.83
2023-01-12T04:48:06.492Z,23.67
2023-01-12T04:50:35.908Z,25.13
2023-01-12T04:53:06.576Z,20.42
2023-01-12T04:55:38.222Z,24.15
2023-01-12T04:58:07.695Z,26.17
2023-01-12T05:00:36.955Z,23.00
2023-01-12T05:03:05.787Z,22.77
2023-01-12T05:05:34.791Z,21.40
2023-01-12T05:08:23.984Z,21.55
2023-01-12T05:11:02.357Z,19.73
2023-01-12T05:13:32.226Z,23.38
2023-01-12T18:52:05.001Z,42.20
2023-01-12T18:54:34.801Z,41.80
2023-01-12T18:57:03.758Z,39.72
2023-01-12T18:59:33.891Z,42.00
2023-01-12T19:02:02.676Z,41.03
2023-01-12T19:04:43.722Z,39.00
2023-01-12T19:07:14.955Z,39.78
2023-01-12T19:09:43.995Z,43.05
2023-01-12T19:12:13.044Z,38.80
2023-01-12T19:15:01.019Z,41.70
2023-01-12T19:17:33.758Z,42.03
2023-01-12T19:20:08.837Z,39.08
2023-01-12T19:22:56.920Z,36.90
2023-01-12T19:25:44.265Z,35.92
2023-01-12T19:28:36.196Z,40.13
2023-01-12T19:31:07.915Z,35.58
2023-01-12T19:33:36.875Z,37.60
2023-01-12T19:36:08.588Z,33.65
2023-01-12T19:38:38.530Z,41.58
2023-01-12T19:41:14.881Z,38.28
2023-01-12T19:43:46.379Z,34.58
2023-01-12T19:46:15.352Z,33.40
2023-01-12T19:48:45.318Z,32.85
2023-01-12T19:51:14.828Z,34.58
2023-01-12T19:53:43.591Z,38.50
2023-01-12T19:56:13.400Z,36.53
2023-01-12T19:58:43.162Z,35.63
2023-01-12T20:01:21.672Z,34.08
2023-01-12T20:03:51.498Z,38.17
2023-01-12T20:06:19.907Z,36.67
2023-01-12T20:08:48.895Z,36.25
2023-01-12T20:11:17.775Z,38.72
2023-01-12T20:13:46.898Z,40.30
2023-01-12T20:16:15.722Z,38.25
2023-01-12T20:18:44.491Z,36.45
2023-01-12T20:21:13.548Z,38.40
2023-01-12T20:23:42.633Z,35.22
2023-01-12T20:26:13.191Z,34.15
2023-01-12T20:28:42.707Z,36.53
2023-01-12T20:31:16.964Z,34.38
2023-01-12T20:33:45.971Z,35.28
2023-01-12T20:36:16.995Z,32.72
2023-01-12T20:38:47.692Z,32.35
2023-01-12T20:41:16.436Z,37.67
2023-01-12T20:43:45.555Z,32.92
2023-01-12T20:46:15.649Z,34.95
2023-01-12T20:48:45.737Z,32.90
2023-01-12T20:51:17.235Z,33.85
2023-01-12T20:53:46.036Z,33.20
2023-01-12T20:56:15.370Z,37.10
2023-01-12T20:58:44.462Z,35.50
2023-01-12T21:01:15.839Z,36.90
2023-01-12T21:03:45.018Z,40.15
2023-01-12T21:06:20.786Z,35.63
2023-01-12T21:08:49.573Z,39.80
2023-01-12T21:11:21.478Z,34.85
2023-01-12T21:13:50.386Z,36.10
2023-01-12T21:16:20.364Z,35.58
2023-01-12T21:18:49.992Z,35.20
2023-01-12T21:21:19.185Z,35.55
2023-01-12T21:23:47.930Z,36.55
2023-01-12T21:26:16.728Z,34.67
2023-01-12T21:28:45.477Z,34.85
2023-01-12T21:31:14.213Z,31.58
2023-01-12T21:33:43.321Z,33.60
2023-01-12T21:36:14.503Z,33.45
2023-01-12T21:38:43.461Z,33.75
2023-01-12T21:41:12.931Z,34.38
2023-01-12T21:43:41.916Z,37.40
2023-01-12T21:46:11.396Z,34.15
2023-01-12T21:48:40.610Z,37.63
2023-01-12T21:51:12.917Z,38.85
2023-01-12T21:53:45.598Z,33.75
2023-01-12T21:56:15.076Z,36.67
2023-01-12T21:58:43.914Z,35.05
2023-01-12T22:01:16.045Z,33.78
2023-01-12T22:03:46.014Z,31.88
2023-01-12T22:06:15.189Z,35.47
2023-01-12T22:08:44.793Z,36.35
2023-01-12T22:11:16.157Z,35.65
2023-01-12T22:13:45.822Z,38.50
2023-01-12T22:16:16.628Z,34.45
2023-01-12T22:18:49.983Z,34.20
2023-01-12T22:21:20.504Z,36.78
2023-01-12T22:23:50.044Z,36.55
2023-01-12T22:26:19.409Z,36.70
2023-01-12T22:28:49.682Z,35.72
2023-01-12T22:31:21.665Z,32.55
2023-01-12T22:34:04.327Z,36.88
2023-01-12T22:36:35.430Z,37.80
2023-01-12T22:39:04.061Z,36.75
2023-01-12T22:41:32.785Z,37.70
2023-01-12T22:44:01.556Z,33.38
2023-01-12T22:46:30.369Z,31.83
2023-01-12T22:49:02.028Z,33.78
2023-01-12T22:51:30.855Z,35.08
2023-01-12T22:54:00.402Z,32.83
2023-01-12T22:56:28.675Z,36.95
2023-01-12T22:58:56.971Z,36.15
2023-01-12T23:01:26.549Z,36.53
2023-01-12T23:03:59.348Z,41.30
2023-01-12T23:06:27.837Z,36.15
2023-01-12T23:08:56.804Z,37.92
2023-01-12T23:11:27.734Z,35.95
2023-01-12T23:13:57.103Z,41.72
2023-01-12T23:16:27.057Z,35.85
2023-01-12T23:19:00.586Z,38.65
2023-01-12T23:21:29.306Z,38.85
2023-01-12T23:23:59.898Z,36.33
2023-01-12T23:26:32.225Z,37.28
2023-01-12T23:29:03.640Z,38.33
2023-01-12T23:31:33.855Z,41.10
2023-01-12T23:34:02.872Z,38.35
2023-01-12T23:36:31.439Z,38.40
2023-01-12T23:39:02.669Z,39.17
2023-01-12T23:41:33.612Z,38.67
2023-01-12T23:44:05.540Z,39.38
2023-01-12T23:46:36.853Z,36.90
2023-01-12T23:49:06.499Z,36.50
2023-01-12T23:51:36.590Z,35.22
2023-01-12T23:54:05.545Z,35.83
2023-01-12T23:56:35.381Z,37.08
2023-01-12T23:59:04.066Z,38.58
